createdAt,value
2023-01-17T00:02:11.410Z,69.60
2023-01-17T00:06:11.797Z,69.80
2023-01-17T00:09:53.699Z,70.00
2023-01-17T00:13:35.546Z,70.20
2023-01-17T00:17:17.390Z,70.40
2023-01-17T00:21:17.778Z,70.60
2023-01-17T00:25:18.321Z,70.80
2023-01-17T00:29:00.093Z,70.90
2023-01-17T00:32:41.922Z,70.90
2023-01-17T00:36:23.725Z,71.00
2023-01-17T00:40:06.109Z,71.30
2023-01-17T00:44:06.413Z,71.60
2023-01-17T00:48:06.716Z,71.60
2023-01-17T00:52:07.238Z,71.60
2023-01-17T00:56:08.259Z,71.40
2023-01-17T01:00:08.772Z,71.50
2023-01-17T01:04:09.237Z,71.50
2023-01-17T01:08:09.733Z,71.60
2023-01-17T01:12:10.377Z,71.80
2023-01-17T01:16:10.962Z,71.90
2023-01-17T01:20:11.190Z,72.10
2023-01-17T01:24:11.693Z,72.20
2023-01-17T01:28:12.378Z,72.20
2023-01-17T01:32:12.675Z,72.20
2023-01-17T01:35:55.488Z,72.40
2023-01-17T01:39:37.352Z,72.40
2023-01-17T01:43:21.828Z,72.50
2023-01-17T01:47:03.704Z,72.60
2023-01-17T01:50:48.131Z,72.70
2023-01-17T01:54:34.957Z,72.60
2023-01-17T01:58:24.451Z,72.50
2023-01-17T02:02:07.512Z,72.60
2023-01-17T02:05:49.625Z,72.70
2023-01-17T02:09:31.524Z,72.70
2023-01-17T02:13:16.638Z,72.70
2023-01-17T02:17:04.157Z,72.80
2023-01-17T02:20:57.140Z,72.90
2023-01-17T02:24:53.490Z,73.10
2023-01-17T02:28:47.535Z,73.40
2023-01-17T02:33:06.217Z,73.60
2023-01-17T02:37:08.194Z,73.90
2023-01-17T02:40:55.694Z,73.80
2023-01-17T02:44:42.250Z,73.70
2023-01-17T02:48:27.425Z,73.70
2023-01-17T02:52:14.879Z,73.60
2023-01-17T02:56:18.055Z,73.50
2023-01-17T03:00:14.162Z,73.70
2023-01-17T03:04:04.787Z,73.70
2023-01-17T03:07:48.404Z,73.70
2023-01-17T03:11:30.320Z,73.90
2023-01-17T03:15:14.246Z,73.90
2023-01-17T03:18:56.149Z,73.90
2023-01-17T03:22:38.011Z,74.00
2023-01-17T03:26:19.828Z,74.00
2023-01-17T03:30:02.005Z,73.90
2023-01-17T03:33:43.901Z,73.80
2023-01-17T03:37:25.745Z,73.80
2023-01-17T03:41:07.908Z,74.00
2023-01-17T03:44:49.754Z,74.20
2023-01-17T03:48:31.623Z,74.30
2023-01-17T03:52:13.575Z,74.40
2023-01-17T03:55:55.373Z,74.50
2023-01-17T03:59:37.229Z,74.50
2023-01-17T04:03:19.126Z,74.50
2023-01-17T04:07:01.141Z,74.50
2023-01-17T04:10:42.978Z,74.50
2023-01-17T04:14:24.838Z,74.50
2023-01-17T04:18:07.193Z,74.50
2023-01-17T04:21:49.276Z,74.50
2023-01-17T04:25:31.257Z,74.50
2023-01-17T04:29:13.094Z,74.50
2023-01-17T04:32:55.480Z,74.50
2023-01-17T04:36:38.035Z,74.40
2023-01-17T04:40:20.080Z,74.30
2023-01-17T04:44:02.243Z,74.30
2023-01-17T04:47:44.085Z,74.40
2023-01-17T04:51:25.983Z,74.40
2023-01-17T04:55:08.457Z,74.30
2023-01-17T04:58:50.287Z,74.40
2023-01-17T05:02:32.312Z,74.40
2023-01-17T05:06:14.153Z,74.60
2023-01-17T05:09:56.092Z,74.60
2023-01-17T05:13:37.961Z,74.60
2023-01-17T05:17:20.235Z,74.50
2023-01-17T05:21:03.831Z,74.50
2023-01-17T05:24:47.237Z,74.70
2023-01-17T05:28:29.243Z,74.80
2023-01-17T05:32:11.549Z,75.00
2023-01-17T05:35:53.418Z,75.10
2023-01-17T05:39:35.259Z,75.30
2023-01-17T05:43:17.492Z,75.40
2023-01-17T05:46:59.601Z,75.40
2023-01-17T05:50:41.448Z,75.40
2023-01-17T05:54:23.306Z,75.40
2023-01-17T05:58:06.315Z,75.50
2023-01-17T06:01:48.223Z,75.50
2023-01-17T06:05:31.081Z,75.50
2023-01-17T06:09:12.895Z,75.50
2023-01-17T06:13:22.089Z,75.50
2023-01-17T06:17:04.781Z,75.60
2023-01-17T06:20:52.060Z,75.30
2023-01-17T06:24:34.103Z,75.30
2023-01-17T06:28:18.641Z,75.40
2023-01-17T06:32:01.751Z,75.40
2023-01-17T06:35:50.793Z,75.50
2023-01-17T06:39:32.776Z,75.50
2023-01-17T06:43:14.719Z,75.50
2023-01-17T06:46:56.585Z,75.50
2023-01-17T06:50:38.616Z,75.50
2023-01-17T06:54:20.516Z,75.50
2023-01-17T06:58:03.158Z,75.60
2023-01-17T07:01:45.231Z,75.60
2023-01-17T07:05:28.590Z,75.60
2023-01-17T07:09:10.432Z,75.50
2023-01-17T07:12:57.552Z,75.50
2023-01-17T07:16:39.397Z,75.40
2023-01-17T07:20:21.402Z,75.40
2023-01-17T07:24:03.262Z,75.30
2023-01-17T07:27:45.103Z,75.30
2023-01-17T07:31:26.976Z,75.30
2023-01-17T07:35:09.171Z,75.30
2023-01-17T07:38:50.976Z,75.10
2023-01-17T07:42:32.840Z,74.90
2023-01-17T07:46:17.485Z,74.80
2023-01-17T07:50:01.556Z,74.80
2023-01-17T07:53:43.397Z,74.80
2023-01-17T07:57:25.338Z,74.80
2023-01-17T08:01:09.953Z,74.70
2023-01-17T08:04:51.943Z,74.70
2023-01-17T08:08:33.941Z,74.80
2023-01-17T08:12:15.888Z,74.90
2023-01-17T08:15:57.859Z,74.90
2023-01-17T08:19:39.782Z,75.10
2023-01-17T08:23:22.097Z,75.20
2023-01-17T08:27:04.406Z,75.30
2023-01-17T08:30:46.418Z,75.40
2023-01-17T08:34:28.391Z,75.40
2023-01-17T08:38:10.263Z,75.40
2023-01-17T08:41:52.104Z,75.30
2023-01-17T08:45:34.041Z,75.20
2023-01-17T08:49:16.127Z,75.20
2023-01-17T08:53:01.112Z,75.20
2023-01-17T08:56:43.369Z,75.30
2023-01-17T09:00:25.441Z,75.50
2023-01-17T09:04:10.956Z,75.70
2023-01-17T09:07:52.965Z,75.80
2023-01-17T09:11:34.945Z,75.80
2023-01-17T09:15:20.199Z,75.90
2023-01-17T09:19:02.104Z,75.90
2023-01-17T09:22:45.985Z,75.80
2023-01-17T09:26:29.600Z,75.70
2023-01-17T09:30:11.840Z,75.50
2023-01-17T09:33:54.995Z,75.40
2023-01-17T09:37:36.898Z,75.40
2023-01-17T09:41:24.007Z,75.40
2023-01-17T09:45:16.394Z,75.50
2023-01-17T09:49:04.129Z,75.60
2023-01-17T09:52:46.448Z,75.70
2023-01-17T09:56:48.972Z,75.80
2023-01-17T10:00:59.890Z,75.80
2023-01-17T10:04:41.792Z,75.80
2023-01-17T10:08:57.651Z,75.90
2023-01-17T10:13:01.234Z,76.10
2023-01-17T10:17:04.719Z,76.00
2023-01-17T10:20:56.587Z,75.90
2023-01-17T10:25:13.217Z,75.80
2023-01-17T10:29:04.971Z,75.60
2023-01-17T10:32:49.795Z,75.70
2023-01-17T10:36:38.697Z,75.60
2023-01-17T10:40:52.751Z,75.60
2023-01-17T10:44:40.551Z,75.50
2023-01-17T10:48:38.845Z,75.60
2023-01-17T10:52:23.375Z,75.50
2023-01-17T10:56:05.729Z,75.60
2023-01-17T10:59:47.644Z,75.50
2023-01-17T11:03:29.785Z,75.40
2023-01-17T11:07:23.871Z,75.40
2023-01-17T11:11:05.784Z,75.20
2023-01-17T11:14:54.668Z,75.30
2023-01-17T11:18:39.153Z,75.20
2023-01-17T11:22:22.057Z,75.20
2023-01-17T11:26:07.686Z,75.20
2023-01-17T11:30:15.980Z,75.20
2023-01-17T11:34:16.179Z,75.10
2023-01-17T11:38:02.824Z,75.00
2023-01-17T11:41:47.778Z,75.20
2023-01-17T11:45:32.626Z,75.20
2023-01-17T11:49:25.447Z,75.30
2023-01-17T11:53:25.391Z,75.30
2023-01-17T11:57:36.908Z,75.20
2023-01-17T12:01:39.137Z,75.30
2023-01-17T12:05:42.811Z,75.20
2023-01-17T12:09:46.817Z,75.20
2023-01-17T12:14:02.001Z,75.50
2023-01-17T12:18:24.680Z,75.60
2023-01-17T12:22:25.072Z,75.30
2023-01-17T12:26:37.659Z,75.70
2023-01-17T12:30:47.172Z,74.90
2023-01-17T12:34:50.847Z,75.20
2023-01-17T12:38:39.102Z,74.80
2023-01-17T12:42:29.708Z,75.00
2023-01-17T12:46:38.582Z,75.00
2023-01-17T12:50:44.682Z,74.40
2023-01-17T12:54:55.937Z,74.30
2023-01-17T12:58:45.358Z,74.20
2023-01-17T13:02:44.253Z,75.40
2023-01-17T13:06:52.071Z,75.20
2023-01-17T13:10:41.423Z,75.50
2023-01-17T13:14:23.515Z,75.80
2023-01-17T13:18:23.223Z,75.80
2023-01-17T13:22:08.841Z,74.10
2023-01-17T13:25:51.172Z,75.20
2023-01-17T13:29:52.339Z,75.00
2023-01-17T13:34:09.875Z,74.70
2023-01-17T13:38:06.247Z,74.60
2023-01-17T13:41:54.890Z,74.50
2023-01-17T13:45:38.716Z,74.40
2023-01-17T13:49:40.791Z,74.20
2023-01-17T13:53:28.972Z,72.60
2023-01-17T13:57:46.646Z,73.40
2023-01-17T14:01:38.679Z,72.20
2023-01-17T14:05:41.906Z,73.20
2023-01-17T14:09:31.265Z,73.10
2023-01-17T14:13:31.665Z,72.80
2023-01-17T14:17:16.349Z,72.00
2023-01-17T14:21:23.059Z,72.60
2023-01-17T14:25:17.728Z,72.20
2023-01-17T14:29:48.540Z,72.20
2023-01-17T14:33:36.144Z,71.90
2023-01-17T14:37:24.669Z,72.20
2023-01-17T14:41:09.679Z,72.10
2023-01-17T14:45:13.751Z,72.20
2023-01-17T14:49:07.450Z,72.00
2023-01-17T14:53:17.389Z,72.10
2023-01-17T14:57:28.524Z,72.00
2023-01-17T15:01:14.727Z,72.00
2023-01-17T15:04:56.705Z,72.20
2023-01-17T15:08:38.806Z,72.10
2023-01-17T15:12:21.536Z,72.10
2023-01-17T15:16:08.719Z,72.10
2023-01-17T15:19:57.157Z,72.20
2023-01-17T15:23:44.259Z,72.20
2023-01-17T15:27:26.852Z,72.20
2023-01-17T15:31:19.985Z,72.30
2023-01-17T15:35:03.069Z,72.30
2023-01-17T15:39:00.295Z,72.30
2023-01-17T15:42:44.183Z,72.40
2023-01-17T15:46:41.197Z,72.40
2023-01-17T15:50:30.263Z,72.40
2023-01-17T15:54:35.264Z,72.40
2023-01-17T15:58:28.505Z,72.60
2023-01-17T16:02:36.614Z,72.50
2023-01-17T16:06:45.692Z,72.60
2023-01-17T16:10:32.363Z,72.70
2023-01-17T16:14:14.305Z,72.70
2023-01-17T16:17:57.941Z,72.70
2023-01-17T16:21:39.896Z,72.70
2023-01-17T16:25:23.951Z,72.80
2023-01-17T16:29:07.572Z,72.80
2023-01-17T16:32:50.029Z,72.80
2023-01-17T16:36:31.889Z,73.00
2023-01-17T16:40:15.268Z,73.00
2023-01-17T16:44:02.512Z,73.10
2023-01-17T16:47:46.137Z,73.20
2023-01-17T16:51:28.044Z,73.30
2023-01-17T16:55:14.303Z,73.50
2023-01-17T16:58:56.624Z,73.40
2023-01-17T17:02:40.840Z,73.60
2023-01-17T17:06:22.920Z,73.60
2023-01-17T17:10:05.259Z,73.70
2023-01-17T17:13:49.188Z,73.90
2023-01-17T17:17:35.921Z,74.00
2023-01-17T17:21:17.799Z,74.10
2023-01-17T17:24:59.810Z,74.20
2023-01-17T17:28:41.701Z,74.20
2023-01-17T17:32:24.057Z,74.20
2023-01-17T17:36:08.180Z,74.40
2023-01-17T17:39:50.185Z,74.50
2023-01-17T17:43:39.087Z,74.50
2023-01-17T17:47:21.042Z,74.50
2023-01-17T17:51:04.111Z,74.60
2023-01-17T17:54:45.976Z,74.50
2023-01-17T17:58:27.824Z,74.70
2023-01-17T18:02:11.507Z,74.60
2023-01-17T18:05:53.449Z,74.60
2023-01-17T18:09:35.337Z,74.80
2023-01-17T18:13:17.155Z,74.90
2023-01-17T18:16:59.054Z,75.00
2023-01-17T18:20:40.933Z,75.20
2023-01-17T18:24:24.602Z,75.40
2023-01-17T18:28:06.445Z,75.20
2023-01-17T18:31:52.949Z,75.40
2023-01-17T18:35:34.908Z,75.40
2023-01-17T18:39:19.461Z,75.30
2023-01-17T18:43:01.317Z,75.20
2023-01-17T18:46:43.673Z,75.30
2023-01-17T18:50:26.809Z,75.30
2023-01-17T18:54:08.998Z,75.30
2023-01-17T18:57:50.911Z,75.40
2023-01-17T19:01:35.786Z,75.40
2023-01-17T19:05:21.577Z,75.20
2023-01-17T19:09:04.659Z,75.30
2023-01-17T19:12:46.981Z,75.30
2023-01-17T19:16:31.242Z,75.20
2023-01-17T19:20:13.362Z,75.20
2023-01-17T19:23:56.331Z,75.20
2023-01-17T19:27:38.201Z,75.10
2023-01-17T19:31:22.853Z,75.20
2023-01-17T19:35:05.063Z,75.30
2023-01-17T19:39:03.075Z,75.20
2023-01-17T19:42:46.651Z,75.20
2023-01-17T19:46:29.000Z,75.30
2023-01-17T19:50:12.540Z,75.20
2023-01-17T19:53:55.068Z,75.20
2023-01-17T19:57:37.639Z,75.20
2023-01-17T20:01:24.025Z,75.20
2023-01-17T20:05:06.574Z,75.20
2023-01-17T20:08:48.834Z,75.20
2023-01-17T20:12:31.179Z,75.30
2023-01-17T20:16:15.511Z,75.10
2023-01-17T20:19:57.524Z,75.10
2023-01-17T20:23:46.852Z,75.10
2023-01-17T20:27:28.741Z,75.00
2023-01-17T20:31:16.404Z,75.00
2023-01-17T20:34:58.356Z,74.90
2023-01-17T20:38:46.389Z,75.00
2023-01-17T20:42:28.313Z,74.90
2023-01-17T20:46:10.951Z,74.90
2023-01-17T20:49:52.883Z,75.00
2023-01-17T20:53:35.244Z,74.90
2023-01-17T20:57:17.113Z,74.90
2023-01-17T21:00:59.374Z,74.80
2023-01-17T21:04:41.444Z,74.90
2023-01-17T21:08:23.417Z,74.90
2023-01-17T21:12:05.459Z,74.90
2023-01-17T21:15:49.725Z,75.00
2023-01-17T21:19:31.650Z,75.10
2023-01-17T21:23:29.170Z,75.10
2023-01-17T21:27:12.900Z,75.10
2023-01-17T21:30:55.285Z,75.20
2023-01-17T21:34:37.303Z,75.20
2023-01-17T21:38:19.489Z,75.30
2023-01-17T21:42:01.425Z,75.30
2023-01-17T21:45:43.384Z,75.30
2023-01-17T21:49:25.346Z,75.30
2023-01-17T21:53:10.034Z,75.40
2023-01-17T21:57:10.549Z,75.50
2023-01-17T22:01:07.699Z,75.70
2023-01-17T22:04:49.950Z,75.60
2023-01-17T22:08:35.410Z,75.50
2023-01-17T22:12:17.343Z,75.70
2023-01-17T22:16:01.211Z,75.80
2023-01-17T22:19:43.153Z,75.90
2023-01-17T22:23:25.105Z,76.00
2023-01-17T22:27:10.563Z,76.10
2023-01-17T22:30:52.486Z,76.00
2023-01-17T22:34:34.463Z,76.00
2023-01-17T22:38:16.783Z,76.10
2023-01-17T22:41:59.378Z,76.10
2023-01-17T22:45:41.215Z,76.20
2023-01-17T22:49:23.615Z,76.30
2023-01-17T22:53:05.485Z,76.50
2023-01-17T22:56:48.703Z,76.70
2023-01-17T23:00:31.603Z,76.60
2023-01-17T23:04:16.044Z,76.80
2023-01-17T23:07:57.977Z,76.70
2023-01-17T23:11:43.407Z,76.60
2023-01-17T23:15:45.728Z,76.70
2023-01-17T23:19:30.453Z,76.70
2023-01-17T23:23:12.281Z,76.40
2023-01-17T23:27:12.694Z,76.40
2023-01-17T23:30:54.637Z,76.30
2023-01-17T23:34:36.557Z,76.30
2023-01-17T23:38:33.903Z,76.40
2023-01-17T23:42:38.933Z,76.40
2023-01-17T23:46:21.335Z,76.30
2023-01-17T23:50:03.289Z,76.20
2023-01-17T23:53:45.159Z,76.40
2023-01-17T23:57:27.000Z,76.30
